sensor_id;sensor_type;location;lat;lon;timestamp;pressure;altitude;pressure_sealevel;temperature;humidity
22753;BME280;11543;43.144;24.684;2023-02-18T00:07:51;99389.78;;;8.69;52.45
22753;BME280;11543;43.144;24.684;2023-02-18T00:10:17;99380.78;;;8.70;52.75
22753;BME280;11543;43.144;24.684;2023-02-18T00:12:46;99381.38;;;8.74;52.78
22753;BME280;11543;43.144;24.684;2023-02-18T00:15:14;99392.13;;;8.83;52.99
22753;BME280;11543;43.144;24.684;2023-02-18T00:17:45;99370.06;;;8.70;52.93
22753;BME280;11543;43.144;24.684;2023-02-18T00:23:52;99401.84;;;8.84;52.78
22753;BME280;11543;43.144;24.684;2023-02-18T00:26:18;99413.84;;;8.90;52.60
22753;BME280;11543;43.144;24.684;2023-02-18T00:28:45;99413.00;;;8.89;53.04
22753;BME280;11543;43.144;24.684;2023-02-18T00:31:24;99414.72;;;8.90;52.77
22753;BME280;11543;43.144;24.684;2023-02-18T00:33:54;99383.22;;;8.62;52.86
22753;BME280;11543;43.144;24.684;2023-02-18T00:36:23;99379.56;;;8.63;52.59
22753;BME280;11543;43.144;24.684;2023-02-18T00:39:21;99370.22;;;8.69;52.03
22753;BME280;11543;43.144;24.684;2023-02-18T00:42:04;99366.59;;;8.58;51.98
22753;BME280;11543;43.144;24.684;2023-02-18T00:44:43;99358.69;;;8.57;52.13
22753;BME280;11543;43.144;24.684;2023-02-18T00:47:08;99351.66;;;8.56;52.08
22753;BME280;11543;43.144;24.684;2023-02-18T00:49:34;99346.03;;;8.59;51.92
22753;BME280;11543;43.144;24.684;2023-02-18T00:51:59;99339.00;;;8.58;51.75
22753;BME280;11543;43.144;24.684;2023-02-18T00:54:25;99329.66;;;8.52;51.65
22753;BME280;11543;43.144;24.684;2023-02-18T00:56:53;99338.53;;;8.53;51.48
22753;BME280;11543;43.144;24.684;2023-02-18T00:59:54;99344.22;;;8.59;51.69
22753;BME280;11543;43.144;24.684;2023-02-18T01:12:46;99338.38;;;8.34;51.76
22753;BME280;11543;43.144;24.684;2023-02-18T01:15:14;99321.84;;;8.28;51.90
22753;BME280;11543;43.144;24.684;2023-02-18T01:17:40;99326.03;;;8.21;51.90
22753;BME280;11543;43.144;24.684;2023-02-18T01:20:07;99344.19;;;8.39;51.89
22753;BME280;11543;43.144;24.684;2023-02-18T01:22:32;99341.28;;;8.30;51.84
22753;BME280;11543;43.144;24.684;2023-02-18T01:24:58;99341.81;;;8.24;51.92
22753;BME280;11543;43.144;24.684;2023-02-18T01:27:23;99342.53;;;8.26;52.02
22753;BME280;11543;43.144;24.684;2023-02-18T01:29:49;99319.50;;;8.14;51.84
22753;BME280;11543;43.144;24.684;2023-02-18T01:32:14;99319.25;;;8.17;52.15
22753;BME280;11543;43.144;24.684;2023-02-18T01:34:40;99354.91;;;8.39;52.39
22753;BME280;11543;43.144;24.684;2023-02-18T01:37:06;99320.47;;;8.13;52.19
22753;BME280;11543;43.144;24.684;2023-02-18T01:39:31;99318.06;;;8.10;52.35
22753;BME280;11543;43.144;24.684;2023-02-18T01:41:57;99317.78;;;8.13;52.31
22753;BME280;11543;43.144;24.684;2023-02-18T01:44:25;99328.53;;;8.02;52.37
22753;BME280;11543;43.144;24.684;2023-02-18T01:46:52;99331.34;;;8.01;52.43
22753;BME280;11543;43.144;24.684;2023-02-18T01:49:34;99338.00;;;8.06;52.66
22753;BME280;11543;43.144;24.684;2023-02-18T01:52:44;99309.16;;;7.89;52.75
22753;BME280;11543;43.144;24.684;2023-02-18T01:55:12;99318.34;;;7.96;52.56
22753;BME280;11543;43.144;24.684;2023-02-18T02:01:16;99295.81;;;7.78;52.71
22753;BME280;11543;43.144;24.684;2023-02-18T02:03:42;99324.41;;;7.98;52.81
22753;BME280;11543;43.144;24.684;2023-02-18T02:06:21;99291.44;;;7.77;52.88
22753;BME280;11543;43.144;24.684;2023-02-18T02:09:05;99297.41;;;7.80;52.77
22753;BME280;11543;43.144;24.684;2023-02-18T02:26:07;99345.03;;;8.07;53.37
22753;BME280;11543;43.144;24.684;2023-02-18T03:13:13;99352.50;;;7.92;53.92
22753;BME280;11543;43.144;24.684;2023-02-18T03:31:09;99330.31;;;7.70;54.54
22753;BME280;11543;43.144;24.684;2023-02-18T03:37:37;99298.28;;;7.58;54.11
22753;BME280;11543;43.144;24.684;2023-02-18T03:40:35;99281.94;;;7.41;54.63
22753;BME280;11543;43.144;24.684;2023-02-18T03:46:26;99303.25;;;7.63;54.12
22753;BME280;11543;43.144;24.684;2023-02-18T03:49:12;99319.84;;;7.78;54.20
22753;BME280;11543;43.144;24.684;2023-02-18T03:51:41;99270.16;;;7.43;54.00
22753;BME280;11543;43.144;24.684;2023-02-18T03:54:08;99336.84;;;7.88;54.28
22753;BME280;11543;43.144;24.684;2023-02-18T03:56:35;99343.66;;;7.81;54.13
22753;BME280;11543;43.144;24.684;2023-02-18T03:59:01;99327.13;;;7.76;54.03
22753;BME280;11543;43.144;24.684;2023-02-18T04:01:27;99302.75;;;7.69;54.23
22753;BME280;11543;43.144;24.684;2023-02-18T04:03:52;99328.22;;;7.84;54.25
22753;BME280;11543;43.144;24.684;2023-02-18T04:06:20;99310.13;;;7.77;53.98
22753;BME280;11543;43.144;24.684;2023-02-18T04:08:46;99302.38;;;7.74;54.16
22753;BME280;11543;43.144;24.684;2023-02-18T04:11:11;99304.06;;;7.86;54.00
22753;BME280;11543;43.144;24.684;2023-02-18T04:13:37;99301.59;;;7.94;54.24
22753;BME280;11543;43.144;24.684;2023-02-18T04:16:02;99257.47;;;7.67;54.01
22753;BME280;11543;43.144;24.684;2023-02-18T04:18:28;99295.91;;;7.87;53.95
22753;BME280;11543;43.144;24.684;2023-02-18T04:20:53;99295.41;;;7.93;53.59
22753;BME280;11543;43.144;24.684;2023-02-18T04:23:19;99286.28;;;7.96;53.98
22753;BME280;11543;43.144;24.684;2023-02-18T04:25:44;99273.97;;;7.84;53.97
22753;BME280;11543;43.144;24.684;2023-02-18T04:28:12;99265.22;;;7.82;54.02
22753;BME280;11543;43.144;24.684;2023-02-18T04:30:39;99301.75;;;8.13;54.26
22753;BME280;11543;43.144;24.684;2023-02-18T04:33:05;99290.66;;;7.97;54.11
22753;BME280;11543;43.144;24.684;2023-02-18T04:35:30;99297.19;;;8.04;54.17
22753;BME280;11543;43.144;24.684;2023-02-18T04:37:55;99290.16;;;8.03;54.16
22753;BME280;11543;43.144;24.684;2023-02-18T04:40:21;99274.75;;;7.95;53.91
22753;BME280;11543;43.144;24.684;2023-02-18T04:42:49;99279.00;;;7.98;53.90
22753;BME280;11543;43.144;24.684;2023-02-18T04:45:15;99241.66;;;7.76;53.75
22753;BME280;11543;43.144;24.684;2023-02-18T04:47:40;99274.97;;;8.04;53.69
22753;BME280;11543;43.144;24.684;2023-02-18T04:50:06;99236.31;;;7.76;53.61
22753;BME280;11543;43.144;24.684;2023-02-18T04:52:32;99229.88;;;7.78;53.46
22753;BME280;11543;43.144;24.684;2023-02-18T04:54:57;99272.41;;;8.02;53.82
22753;BME280;11543;43.144;24.684;2023-02-18T04:57:23;99269.94;;;8.10;54.04
22753;BME280;11543;43.144;24.684;2023-02-18T04:59:48;99268.00;;;8.12;53.76
22753;BME280;11543;43.144;24.684;2023-02-18T05:02:13;99268.50;;;8.06;53.30
22753;BME280;11543;43.144;24.684;2023-02-18T05:04:39;99249.88;;;7.95;53.46
22753;BME280;11543;43.144;24.684;2023-02-18T05:07:04;99243.34;;;7.88;53.77
22753;BME280;11543;43.144;24.684;2023-02-18T05:09:30;99223.41;;;7.92;53.71
22753;BME280;11543;43.144;24.684;2023-02-18T05:11:55;99238.16;;;8.07;53.35
22753;BME280;11543;43.144;24.684;2023-02-18T05:14:21;99223.88;;;7.97;53.21
22753;BME280;11543;43.144;24.684;2023-02-18T05:16:46;99218.00;;;8.03;52.81
22753;BME280;11543;43.144;24.684;2023-02-18T05:19:13;99249.22;;;8.23;53.07
22753;BME280;11543;43.144;24.684;2023-02-18T05:21:39;99237.09;;;8.19;53.17
22753;BME280;11543;43.144;24.684;2023-02-18T05:24:04;99260.59;;;8.37;53.38
22753;BME280;11543;43.144;24.684;2023-02-18T05:26:30;99238.63;;;8.33;53.33
22753;BME280;11543;43.144;24.684;2023-02-18T05:28:55;99216.63;;;8.29;52.81
22753;BME280;11543;43.144;24.684;2023-02-18T05:31:21;99235.03;;;8.44;53.07
22753;BME280;11543;43.144;24.684;2023-02-18T05:33:47;99218.81;;;8.36;53.05
22753;BME280;11543;43.144;24.684;2023-02-18T05:36:12;99269.47;;;8.58;53.11
22753;BME280;11543;43.144;24.684;2023-02-18T05:38:38;99209.31;;;8.31;53.15
22753;BME280;11543;43.144;24.684;2023-02-18T05:41:03;99233.06;;;8.46;53.56
22753;BME280;11543;43.144;24.684;2023-02-18T05:43:29;99260.28;;;8.72;53.54
22753;BME280;11543;43.144;24.684;2023-02-18T05:46:10;99256.03;;;8.69;53.27
22753;BME280;11543;43.144;24.684;2023-02-18T05:48:42;99248.63;;;8.61;53.25
22753;BME280;11543;43.144;24.684;2023-02-18T05:51:12;99209.28;;;8.43;53.17
22753;BME280;11543;43.144;24.684;2023-02-18T05:54:09;99262.00;;;8.82;52.86
22753;BME280;11543;43.144;24.684;2023-02-18T05:56:34;99195.09;;;8.52;52.86
22753;BME280;11543;43.144;24.684;2023-02-18T05:59:00;99195.31;;;8.39;52.89
22753;BME280;11543;43.144;24.684;2023-02-18T06:01:25;99203.84;;;8.54;53.00
22753;BME280;11543;43.144;24.684;2023-02-18T06:03:51;99220.28;;;8.70;52.94
22753;BME280;11543;43.144;24.684;2023-02-18T06:06:17;99193.69;;;8.48;53.08
22753;BME280;11543;43.144;24.684;2023-02-18T06:08:42;99216.88;;;8.68;52.78
22753;BME280;11543;43.144;24.684;2023-02-18T06:11:08;99230.16;;;8.79;53.10
22753;BME280;11543;43.144;24.684;2023-02-18T06:13:55;99193.59;;;8.59;52.98
22753;BME280;11543;43.144;24.684;2023-02-18T06:16:29;99242.03;;;8.86;53.01
22753;BME280;11543;43.144;24.684;2023-02-18T06:18:55;99208.03;;;8.68;53.16
22753;BME280;11543;43.144;24.684;2023-02-18T06:21:20;99208.13;;;8.66;53.18
22753;BME280;11543;43.144;24.684;2023-02-18T06:23:46;99232.56;;;8.82;52.99
22753;BME280;11543;43.144;24.684;2023-02-18T06:26:11;99254.72;;;8.94;53.02
22753;BME280;11543;43.144;24.684;2023-02-18T06:28:39;99222.59;;;8.84;53.07
22753;BME280;11543;43.144;24.684;2023-02-18T06:31:06;99230.66;;;8.94;52.75
22753;BME280;11543;43.144;24.684;2023-02-18T06:33:32;99224.88;;;8.99;52.75
22753;BME280;11543;43.144;24.684;2023-02-18T06:36:00;99262.16;;;9.21;51.94
22753;BME280;11543;43.144;24.684;2023-02-18T06:38:26;99249.78;;;9.30;52.18
22753;BME280;11543;43.144;24.684;2023-02-18T06:40:52;99214.50;;;9.15;52.06
22753;BME280;11543;43.144;24.684;2023-02-18T06:43:19;99245.00;;;9.33;51.60
22753;BME280;11543;43.144;24.684;2023-02-18T06:45:46;99210.88;;;9.35;51.67
22753;BME280;11543;43.144;24.684;2023-02-18T06:48:13;99233.50;;;9.62;50.77
22753;BME280;11543;43.144;24.684;2023-02-18T06:50:39;99253.56;;;9.96;50.35
22753;BME280;11543;43.144;24.684;2023-02-18T06:53:05;99241.41;;;10.11;49.62
22753;BME280;11543;43.144;24.684;2023-02-18T06:55:33;99205.97;;;10.17;48.74
22753;BME280;11543;43.144;24.684;2023-02-18T06:58:02;99245.03;;;10.68;47.79
22753;BME280;11543;43.144;24.684;2023-02-18T07:00:28;99241.56;;;10.85;47.57
22753;BME280;11543;43.144;24.684;2023-02-18T07:02:53;99224.13;;;10.99;47.01
22753;BME280;11543;43.144;24.684;2023-02-18T07:05:19;99218.81;;;11.17;46.84
22753;BME280;11543;43.144;24.684;2023-02-18T07:07:44;99221.88;;;11.32;46.80
22753;BME280;11543;43.144;24.684;2023-02-18T07:10:10;99221.06;;;11.49;46.27
22753;BME280;11543;43.144;24.684;2023-02-18T07:12:39;99194.63;;;11.44;46.35
22753;BME280;11543;43.144;24.684;2023-02-18T07:15:05;99204.84;;;11.59;46.05
22753;BME280;11543;43.144;24.684;2023-02-18T07:17:30;99232.25;;;11.90;45.83
22753;BME280;11543;43.144;24.684;2023-02-18T07:19:56;99232.16;;;11.99;45.08
22753;BME280;11543;43.144;24.684;2023-02-18T07:22:24;99254.06;;;12.22;44.97
22753;BME280;11543;43.144;24.684;2023-02-18T07:24:52;99228.31;;;12.20;43.97
22753;BME280;11543;43.144;24.684;2023-02-18T07:27:19;99258.16;;;12.52;43.31
22753;BME280;11543;43.144;24.684;2023-02-18T07:29:50;99227.19;;;12.48;42.87
22753;BME280;11543;43.144;24.684;2023-02-18T07:32:16;99259.38;;;12.84;42.22
22753;BME280;11543;43.144;24.684;2023-02-18T07:34:44;99237.09;;;12.73;42.04
22753;BME280;11543;43.144;24.684;2023-02-18T07:37:09;99238.22;;;12.97;41.56
22753;BME280;11543;43.144;24.684;2023-02-18T07:39:43;99257.34;;;13.37;41.75
22753;BME280;11543;43.144;24.684;2023-02-18T07:42:11;99256.72;;;13.60;41.81
22753;BME280;11543;43.144;24.684;2023-02-18T07:44:37;99206.81;;;13.48;40.94
22753;BME280;11543;43.144;24.684;2023-02-18T07:47:05;99216.47;;;13.75;41.52
22753;BME280;11543;43.144;24.684;2023-02-18T07:49:33;99234.91;;;14.03;39.72
22753;BME280;11543;43.144;24.684;2023-02-18T07:51:59;99197.47;;;14.09;40.03
22753;BME280;11543;43.144;24.684;2023-02-18T07:54:25;99248.75;;;14.57;39.78
22753;BME280;11543;43.144;24.684;2023-02-18T07:56:51;99260.25;;;14.76;40.84
22753;BME280;11543;43.144;24.684;2023-02-18T07:59:33;99237.63;;;14.77;39.35
22753;BME280;11543;43.144;24.684;2023-02-18T08:02:04;99218.66;;;14.93;38.06
22753;BME280;11543;43.144;24.684;2023-02-18T08:04:32;99255.16;;;15.36;38.46
22753;BME280;11543;43.144;24.684;2023-02-18T08:07:00;99198.09;;;15.23;37.16
22753;BME280;11543;43.144;24.684;2023-02-18T08:09:25;99227.19;;;15.60;36.87
22753;BME280;11543;43.144;24.684;2023-02-18T08:12:27;99189.00;;;15.63;37.30
22753;BME280;11543;43.144;24.684;2023-02-18T08:14:52;99208.25;;;15.91;36.38
22753;BME280;11543;43.144;24.684;2023-02-18T08:17:20;99189.53;;;16.04;35.62
22753;BME280;11543;43.144;24.684;2023-02-18T08:20:00;99203.03;;;16.27;35.08
22753;BME280;11543;43.144;24.684;2023-02-18T08:22:26;99231.25;;;16.55;35.10
22753;BME280;11543;43.144;24.684;2023-02-18T08:25:18;99200.13;;;16.51;34.75
22753;BME280;11543;43.144;24.684;2023-02-18T08:31:00;99198.50;;;16.80;35.03
22753;BME280;11543;43.144;24.684;2023-02-18T08:33:26;99195.31;;;16.91;35.61
22753;BME280;11543;43.144;24.684;2023-02-18T08:36:19;99228.69;;;17.21;34.19
22753;BME280;11543;43.144;24.684;2023-02-18T08:39:15;99195.50;;;17.04;34.03
22753;BME280;11543;43.144;24.684;2023-02-18T08:41:40;99237.94;;;17.27;34.24
22753;BME280;11543;43.144;24.684;2023-02-18T08:44:10;99194.84;;;17.02;34.04
22753;BME280;11543;43.144;24.684;2023-02-18T08:46:35;99214.75;;;17.09;33.37
22753;BME280;11543;43.144;24.684;2023-02-18T08:49:01;99204.50;;;16.90;34.26
22753;BME280;11543;43.144;24.684;2023-02-18T08:51:27;99192.81;;;16.90;33.90
22753;BME280;11543;43.144;24.684;2023-02-18T08:53:55;99193.66;;;16.90;33.95
22753;BME280;11543;43.144;24.684;2023-02-18T08:56:21;99228.97;;;17.11;33.82
22753;BME280;11543;43.144;24.684;2023-02-18T08:58:59;99219.91;;;17.04;34.70
22753;BME280;11543;43.144;24.684;2023-02-18T09:01:26;99212.91;;;16.95;33.99
22753;BME280;11543;43.144;24.684;2023-02-18T09:06:25;99225.88;;;17.14;34.53
22753;BME280;11543;43.144;24.684;2023-02-18T09:08:54;99242.81;;;17.16;35.07
22753;BME280;11543;43.144;24.684;2023-02-18T09:40:49;99256.34;;;17.31;36.08
22753;BME280;11543;43.144;24.684;2023-02-18T09:53:11;99233.63;;;17.47;35.85
22753;BME280;11543;43.144;24.684;2023-02-18T09:55:40;99228.22;;;17.47;34.46
22753;BME280;11543;43.144;24.684;2023-02-18T09:58:12;99253.06;;;17.65;35.27
22753;BME280;11543;43.144;24.684;2023-02-18T10:00:44;99265.31;;;17.61;34.17
22753;BME280;11543;43.144;24.684;2023-02-18T10:03:18;99251.97;;;17.45;34.96
22753;BME280;11543;43.144;24.684;2023-02-18T10:09:01;99223.19;;;17.14;34.49
22753;BME280;11543;43.144;24.684;2023-02-18T10:11:34;99289.56;;;17.48;34.72
22753;BME280;11543;43.144;24.684;2023-02-18T10:14:02;99221.50;;;17.13;34.18
22753;BME280;11543;43.144;24.684;2023-02-18T10:16:29;99222.34;;;17.14;35.61
22753;BME280;11543;43.144;24.684;2023-02-18T10:21:48;99219.81;;;17.12;35.12
22753;BME280;11543;43.144;24.684;2023-02-18T10:26:57;99246.34;;;17.32;34.78
22753;BME280;11543;43.144;24.684;2023-02-18T10:32:59;99229.63;;;17.13;35.05
22753;BME280;11543;43.144;24.684;2023-02-18T10:42:19;99251.31;;;17.43;35.83
22753;BME280;11543;43.144;24.684;2023-02-18T10:45:45;99250.47;;;17.42;34.75
22753;BME280;11543;43.144;24.684;2023-02-18T10:51:11;99217.75;;;17.14;34.95
22753;BME280;11543;43.144;24.684;2023-02-18T10:53:50;99215.03;;;17.14;34.68
22753;BME280;11543;43.144;24.684;2023-02-18T10:59:09;99218.78;;;17.13;35.27
22753;BME280;11543;43.144;24.684;2023-02-18T11:01:35;99202.69;;;17.12;34.64
22753;BME280;11543;43.144;24.684;2023-02-18T11:04:11;99224.84;;;17.15;34.77
22753;BME280;11543;43.144;24.684;2023-02-18T11:06:43;99227.28;;;17.10;35.15
22753;BME280;11543;43.144;24.684;2023-02-18T11:09:28;99218.13;;;17.11;35.10
22753;BME280;11543;43.144;24.684;2023-02-18T11:12:05;99194.84;;;17.02;35.04
22753;BME280;11543;43.144;24.684;2023-02-18T11:14:40;99213.06;;;17.08;35.50
22753;BME280;11543;43.144;24.684;2023-02-18T11:17:20;99216.44;;;17.10;34.90
22753;BME280;11543;43.144;24.684;2023-02-18T11:19:54;99207.28;;;17.11;34.43
22753;BME280;11543;43.144;24.684;2023-02-18T11:22:27;99201.47;;;17.14;35.28
22753;BME280;11543;43.144;24.684;2023-02-18T11:24:55;99190.25;;;17.17;34.59
22753;BME280;11543;43.144;24.684;2023-02-18T11:30:02;99198.28;;;17.26;35.01
22753;BME280;11543;43.144;24.684;2023-02-18T11:32:29;99158.31;;;16.98;35.22
22753;BME280;11543;43.144;24.684;2023-02-18T11:34:58;99154.28;;;16.94;34.79
22753;BME280;11543;43.144;24.684;2023-02-18T11:37:24;99152.13;;;17.04;34.71
22753;BME280;11543;43.144;24.684;2023-02-18T11:39:53;99177.63;;;17.39;34.91
22753;BME280;11543;43.144;24.684;2023-02-18T11:42:21;99199.56;;;17.59;35.36
22753;BME280;11543;43.144;24.684;2023-02-18T11:49:57;99171.13;;;17.55;34.96
22753;BME280;11543;43.144;24.684;2023-02-18T11:52:32;99198.97;;;17.78;35.55
22753;BME280;11543;43.144;24.684;2023-02-18T11:57:31;99193.66;;;17.92;34.65
22753;BME280;11543;43.144;24.684;2023-02-18T11:59:58;99154.25;;;17.74;34.90
22753;BME280;11543;43.144;24.684;2023-02-18T12:02:32;99195.75;;;17.90;34.55
22753;BME280;11543;43.144;24.684;2023-02-18T12:08:19;99155.38;;;17.65;34.74
22753;BME280;11543;43.144;24.684;2023-02-18T12:10:54;99177.91;;;17.80;34.57
22753;BME280;11543;43.144;24.684;2023-02-18T12:13:25;99131.41;;;17.47;34.41
22753;BME280;11543;43.144;24.684;2023-02-18T12:25:45;99156.19;;;18.02;34.81
22753;BME280;11543;43.144;24.684;2023-02-18T12:34:42;99145.44;;;17.94;34.02
22753;BME280;11543;43.144;24.684;2023-02-18T12:40:38;99104.38;;;17.75;35.19
22753;BME280;11543;43.144;24.684;2023-02-18T12:52:11;99131.00;;;18.14;37.14
22753;BME280;11543;43.144;24.684;2023-02-18T12:58:16;99118.41;;;18.28;37.60
22753;BME280;11543;43.144;24.684;2023-02-18T13:14:54;99069.88;;;17.69;37.93
22753;BME280;11543;43.144;24.684;2023-02-18T13:17:31;99114.31;;;17.90;37.56
22753;BME280;11543;43.144;24.684;2023-02-18T13:20:04;99076.44;;;17.60;38.61
22753;BME280;11543;43.144;24.684;2023-02-18T13:22:35;99069.31;;;17.59;38.06
22753;BME280;11543;43.144;24.684;2023-02-18T13:25:01;99099.59;;;17.77;38.38
22753;BME280;11543;43.144;24.684;2023-02-18T13:28:06;99118.00;;;17.82;37.94
22753;BME280;11543;43.144;24.684;2023-02-18T13:30:47;99144.69;;;17.78;37.35
22753;BME280;11543;43.144;24.684;2023-02-18T13:36:25;99133.19;;;17.76;37.83
22753;BME280;11543;43.144;24.684;2023-02-18T13:39:02;99144.69;;;17.78;38.20
22753;BME280;11543;43.144;24.684;2023-02-18T13:41:28;99152.19;;;17.76;38.35
22753;BME280;11543;43.144;24.684;2023-02-18T13:43:58;99126.03;;;17.54;38.53
22753;BME280;11543;43.144;24.684;2023-02-18T13:46:24;99124.34;;;17.53;38.33
22753;BME280;11543;43.144;24.684;2023-02-18T13:49:02;99115.19;;;17.54;38.23
22753;BME280;11543;43.144;24.684;2023-02-18T13:56:59;99117.19;;;17.45;37.48
22753;BME280;11543;43.144;24.684;2023-02-18T13:59:40;99133.78;;;17.57;37.89
22753;BME280;11543;43.144;24.684;2023-02-18T14:13:41;99136.19;;;17.31;37.95
22753;BME280;11543;43.144;24.684;2023-02-18T14:16:08;99129.97;;;17.15;37.87
22753;BME280;11543;43.144;24.684;2023-02-18T14:21:43;99114.28;;;16.96;37.90
22753;BME280;11543;43.144;24.684;2023-02-18T14:24:11;99105.69;;;16.93;37.60
22753;BME280;11543;43.144;24.684;2023-02-18T14:26:46;99117.75;;;16.90;37.77
22753;BME280;11543;43.144;24.684;2023-02-18T14:29:18;99118.97;;;16.87;37.89
22753;BME280;11543;43.144;24.684;2023-02-18T14:31:54;99142.81;;;16.92;38.09
22753;BME280;11543;43.144;24.684;2023-02-18T14:48:18;99105.59;;;16.56;37.64
22753;BME280;11543;43.144;24.684;2023-02-18T14:50:50;99092.16;;;16.48;37.79
22753;BME280;11543;43.144;24.684;2023-02-18T14:53:20;99111.78;;;16.50;37.89
22753;BME280;11543;43.144;24.684;2023-02-18T14:55:49;99098.59;;;16.47;38.64
22753;BME280;11543;43.144;24.684;2023-02-18T14:58:36;99114.94;;;16.54;38.28
22753;BME280;11543;43.144;24.684;2023-02-18T15:01:24;99110.00;;;16.58;38.03
22753;BME280;11543;43.144;24.684;2023-02-18T15:03:53;99101.09;;;16.34;38.44
22753;BME280;11543;43.144;24.684;2023-02-18T15:06:36;99095.75;;;16.26;38.10
22753;BME280;11543;43.144;24.684;2023-02-18T15:09:18;99097.72;;;16.32;38.82
22753;BME280;11543;43.144;24.684;2023-02-18T15:14:20;99127.06;;;16.43;38.90
22753;BME280;11543;43.144;24.684;2023-02-18T15:16:48;99125.00;;;16.45;38.76
22753;BME280;11543;43.144;24.684;2023-02-18T15:19:23;99131.81;;;16.41;38.75
22753;BME280;11543;43.144;24.684;2023-02-18T15:21:53;99134.91;;;16.38;38.83
22753;BME280;11543;43.144;24.684;2023-02-18T15:24:30;99076.41;;;16.00;39.12
22753;BME280;11543;43.144;24.684;2023-02-18T15:27:17;99123.50;;;16.28;38.77
22753;BME280;11543;43.144;24.684;2023-02-18T15:29:49;99108.44;;;16.11;38.64
22753;BME280;11543;43.144;24.684;2023-02-18T15:32:21;99085.56;;;15.99;39.06
22753;BME280;11543;43.144;24.684;2023-02-18T15:34:56;99071.53;;;15.80;38.98
22753;BME280;11543;43.144;24.684;2023-02-18T15:37:22;99120.28;;;16.10;39.38
22753;BME280;11543;43.144;24.684;2023-02-18T15:39:48;99068.22;;;15.70;39.52
22753;BME280;11543;43.144;24.684;2023-02-18T15:44:45;99104.09;;;15.87;39.63
22753;BME280;11543;43.144;24.684;2023-02-18T15:47:13;99093.97;;;15.66;39.48
22753;BME280;11543;43.144;24.684;2023-02-18T15:49:39;99114.06;;;15.86;39.66
22753;BME280;11543;43.144;24.684;2023-02-18T15:52:09;99066.94;;;15.58;39.38
22753;BME280;11543;43.144;24.684;2023-02-18T15:54:38;99083.69;;;15.62;39.77
22753;BME280;11543;43.144;24.684;2023-02-18T15:57:13;99083.31;;;15.65;39.62
22753;BME280;11543;43.144;24.684;2023-02-18T16:00:10;99092.56;;;15.70;39.83
22753;BME280;11543;43.144;24.684;2023-02-18T16:03:19;99059.59;;;15.44;39.99
22753;BME280;11543;43.144;24.684;2023-02-18T16:05:45;99094.31;;;15.55;40.14
22753;BME280;11543;43.144;24.684;2023-02-18T16:08:25;99096.72;;;15.50;40.13
22753;BME280;11543;43.144;24.684;2023-02-18T16:11:06;99097.44;;;15.44;40.32
22753;BME280;11543;43.144;24.684;2023-02-18T16:13:35;99067.69;;;15.21;40.63
22753;BME280;11543;43.144;24.684;2023-02-18T16:16:01;99078.69;;;15.19;40.46
22753;BME280;11543;43.144;24.684;2023-02-18T16:18:37;99074.19;;;15.12;40.86
22753;BME280;11543;43.144;24.684;2023-02-18T16:21:37;99089.91;;;15.08;40.68
22753;BME280;11543;43.144;24.684;2023-02-18T16:24:22;99101.75;;;15.07;41.35
22753;BME280;11543;43.144;24.684;2023-02-18T16:26:56;99116.44;;;15.05;41.61
22753;BME280;11543;43.144;24.684;2023-02-18T16:29:30;99112.56;;;15.07;41.76
22753;BME280;11543;43.144;24.684;2023-02-18T16:32:01;99130.09;;;15.11;41.72
22753;BME280;11543;43.144;24.684;2023-02-18T16:34:30;99141.56;;;15.13;41.97
22753;BME280;11543;43.144;24.684;2023-02-18T16:36:56;99113.59;;;14.98;41.56
22753;BME280;11543;43.144;24.684;2023-02-18T16:39:39;99128.09;;;15.05;41.56
22753;BME280;11543;43.144;24.684;2023-02-18T16:42:09;99131.41;;;15.15;41.84
22753;BME280;11543;43.144;24.684;2023-02-18T16:44:39;99136.72;;;15.32;41.74
22753;BME280;11543;43.144;24.684;2023-02-18T16:47:05;99087.31;;;14.92;41.48
22753;BME280;11543;43.144;24.684;2023-02-18T16:49:33;99074.81;;;14.91;41.60
22753;BME280;11543;43.144;24.684;2023-02-18T16:52:29;99071.31;;;14.82;41.57
22753;BME280;11543;43.144;24.684;2023-02-18T16:54:58;99119.72;;;14.92;41.76
22753;BME280;11543;43.144;24.684;2023-02-18T16:57:25;99114.66;;;14.89;41.81
22753;BME280;11543;43.144;24.684;2023-02-18T16:59:52;99059.25;;;14.54;42.10
22753;BME280;11543;43.144;24.684;2023-02-18T17:02:21;99076.97;;;14.56;42.34
22753;BME280;11543;43.144;24.684;2023-02-18T17:05:21;99082.41;;;14.48;42.56
22753;BME280;11543;43.144;24.684;2023-02-18T17:07:52;99064.72;;;14.29;42.78
22753;BME280;11543;43.144;24.684;2023-02-18T17:10:18;99097.09;;;14.46;43.03
22753;BME280;11543;43.144;24.684;2023-02-18T17:12:46;99091.84;;;14.36;43.04
22753;BME280;11543;43.144;24.684;2023-02-18T17:18:08;99067.59;;;14.28;43.13
22753;BME280;11543;43.144;24.684;2023-02-18T17:27:19;99082.75;;;14.45;43.04
22753;BME280;11543;43.144;24.684;2023-02-18T17:29:46;99090.78;;;14.61;43.43
22753;BME280;11543;43.144;24.684;2023-02-18T17:32:26;99047.00;;;14.35;43.28
22753;BME280;11543;43.144;24.684;2023-02-18T17:34:53;99105.59;;;14.74;43.25
22753;BME280;11543;43.144;24.684;2023-02-18T17:37:18;99069.25;;;14.45;43.61
22753;BME280;11543;43.144;24.684;2023-02-18T17:39:44;99065.19;;;14.49;43.44
22753;BME280;11543;43.144;24.684;2023-02-18T17:42:10;99073.94;;;14.51;43.35
22753;BME280;11543;43.144;24.684;2023-02-18T17:44:36;99105.59;;;14.74;43.34
22753;BME280;11543;43.144;24.684;2023-02-18T17:47:05;99083.19;;;14.65;43.44
22753;BME280;11543;43.144;24.684;2023-02-18T17:49:37;99090.41;;;14.73;43.39
22753;BME280;11543;43.144;24.684;2023-02-18T17:52:03;99079.34;;;14.51;43.25
22753;BME280;11543;43.144;24.684;2023-02-18T17:54:28;99057.94;;;14.42;43.49
22753;BME280;11543;43.144;24.684;2023-02-18T17:56:54;99083.88;;;14.59;43.71
22753;BME280;11543;43.144;24.684;2023-02-18T17:59:20;99075.00;;;14.42;43.78
22753;BME280;11543;43.144;24.684;2023-02-18T18:01:46;99065.22;;;14.33;43.72